Time;durP1;ratioP1;P1;durP2;ratioP2;P2;SDS_P1;SDS_P2;PMS_P1;PMS_P2;Temp;Humidity;BMP_temperature;BMP_pressure;BME280_temperature;BME280_humidity;BME280_pressure;Samples;Min_cycle;Max_cycle;Signal;HPM_P1;HPM_P2
2022/09/13 00:01:48;;;;;;;24.33;19.48;;;;;;;;;;5024361;28;20049;-74
2022/09/13 00:04:14;;;;;;;27.23;19.58;;;;;;;;;;5023533;28;20378;-74
2022/09/13 00:06:40;;;;;;;26.40;18.90;;;;;;;;;;5013572;28;20049;-74
2022/09/13 00:09:06;;;;;;;29.95;18.42;;;;;;;;;;5023736;28;20038;-74
2022/09/13 00:11:32;;;;;;;24.20;18.13;;;18.50;99.90;;;;;;5027759;28;20469;-74
2022/09/13 00:13:58;;;;;;;20.83;15.57;;;;;;;;;;5025642;28;20124;-74
2022/09/13 00:16:25;;;;;;;21.30;14.98;;;;;;;;;;5026875;28;20461;-74
2022/09/13 00:18:52;;;;;;;22.45;14.45;;;;;;;;;;5022068;28;20478;-74
2022/09/13 00:21:19;;;;;;;17.48;12.40;;;;;;;;;;5026770;28;20148;-74
2022/09/13 00:23:47;;;;;;;15.50;11.93;;;18.40;99.90;;;;;;5023138;28;20593;-74
2022/09/13 00:26:14;;;;;;;15.07;11.25;;;;;;;;;;5026982;28;20026;-74
2022/09/13 00:28:40;;;;;;;15.45;12.80;;;18.40;99.90;;;;;;5027241;28;20044;-74
2022/09/13 00:31:08;;;;;;;15.27;12.43;;;18.40;99.90;;;;;;5023463;28;20037;-74
2022/09/13 00:33:34;;;;;;;17.90;13.50;;;;;;;;;;5027665;28;20407;-74
2022/09/13 00:36:07;;;;;;;24.50;14.82;;;;;;;;;;5018502;28;20084;-74
2022/09/13 00:38:39;;;;;;;18.02;13.40;;;;;;;;;;5024688;28;20117;-73
2022/09/13 00:41:09;;;;;;;20.02;13.07;;;18.50;99.90;;;;;;5016591;28;20040;-74
2022/09/13 00:43:40;;;;;;;18.42;13.60;;;;;;;;;;5011073;28;20117;-74
2022/09/13 00:46:07;;;;;;;18.33;12.75;;;;;;;;;;5009639;28;20025;-74
2022/09/13 00:48:34;;;;;;;16.15;12.00;;;;;;;;;;5014168;28;20061;-74
2022/09/13 00:51:01;;;;;;;15.35;11.95;;;18.70;99.90;;;;;;5010928;28;20049;-74
2022/09/13 00:53:39;;;;;;;14.05;10.80;;;18.40;99.90;;;;;;5003071;28;20458;-74
2022/09/13 00:56:08;;;;;;;20.17;11.30;;;;;;;;;;5014627;28;20096;-73
2022/09/13 00:58:40;;;;;;;15.32;10.95;;;18.40;99.90;;;;;;5015000;28;20057;-73
2022/09/13 01:01:08;;;;;;;13.75;11.60;;;;;;;;;;5009220;28;20042;-74
2022/09/13 01:03:35;;;;;;;12.18;10.15;;;18.30;99.90;;;;;;5018183;28;20029;-74
2022/09/13 01:06:08;;;;;;;15.55;11.43;;;18.20;99.90;;;;;;5009016;28;20156;-74
2022/09/13 01:08:36;;;;;;;15.95;11.40;;;18.30;99.90;;;;;;5014782;28;20034;-74
2022/09/13 01:11:04;;;;;;;15.27;10.50;;;18.40;99.90;;;;;;5008316;28;20045;-74
2022/09/13 01:13:32;;;;;;;15.30;11.07;;;18.30;99.90;;;;;;5019536;28;20487;-74
2022/09/13 01:15:59;;;;;;;16.50;11.18;;;;;;;;;;4984402;28;20026;-74
2022/09/13 01:18:26;;;;;;;14.65;11.32;;;;;;;;;;5032608;28;20030;-74
2022/09/13 01:21:01;;;;;;;13.77;11.20;;;;;;;;;;5012517;28;20465;-74
2022/09/13 01:23:27;;;;;;;16.15;11.55;;;;;;;;;;5036602;28;20037;-74
2022/09/13 01:26:11;;;;;;;16.27;10.38;;;;;;;;;;5013348;28;20377;-74
2022/09/13 01:28:46;;;;;;;15.43;11.00;;;;;;;;;;5019548;28;20040;-74
2022/09/13 01:31:22;;;;;;;12.73;10.18;;;;;;;;;;5009415;28;20056;-74
2022/09/13 01:34:03;;;;;;;15.77;11.30;;;;;;;;;;5027144;28;20390;-73
2022/09/13 01:36:53;;;;;;;18.23;11.17;;;;;;;;;;5011386;28;20030;-73
2022/09/13 01:39:45;;;;;;;12.90;10.55;;;18.20;99.90;;;;;;5013230;28;20050;-73
2022/09/13 01:42:23;;;;;;;18.63;10.88;;;18.20;99.90;;;;;;5005459;28;20108;-73
2022/09/13 01:44:48;;;;;;;16.20;11.07;;;18.30;99.90;;;;;;5011548;28;20037;-73
2022/09/13 01:47:36;;;;;;;13.93;11.23;;;18.40;99.90;;;;;;5014922;28;20021;-73
2022/09/13 01:50:02;;;;;;;21.58;11.52;;;;;;;;;;5007599;28;20120;-74
2022/09/13 01:52:36;;;;;;;16.95;10.95;;;;;;;;;;5012686;28;20323;-73
2022/09/13 01:55:07;;;;;;;15.82;10.90;;;;;;;;;;5018048;28;20029;-73
2022/09/13 01:57:42;;;;;;;18.65;10.52;;;;;;;;;;5004232;28;20370;-73
2022/09/13 02:00:14;;;;;;;15.20;10.13;;;;;;;;;;5012537;28;20034;-73
2022/09/13 02:03:04;;;;;;;13.75;10.48;;;18.00;99.90;;;;;;5009986;28;20021;-73
2022/09/13 02:05:36;;;;;;;17.10;10.73;;;18.20;99.90;;;;;;5014655;28;20172;-74
2022/09/13 02:08:21;;;;;;;13.93;10.27;;;18.10;99.90;;;;;;5013104;28;20486;-73
2022/09/13 02:11:03;;;;;;;14.20;9.90;;;18.10;99.90;;;;;;5012115;28;20060;-74
2022/09/13 02:13:34;;;;;;;17.42;11.00;;;18.10;99.90;;;;;;5010028;28;20049;-74
2022/09/13 02:16:02;;;;;;;14.23;10.75;;;;;;;;;;5014982;28;20030;-74
2022/09/13 02:18:30;;;;;;;11.18;9.48;;;;;;;;;;5004808;28;20502;-74
2022/09/13 02:21:00;;;;;;;16.75;11.18;;;18.00;99.90;;;;;;5014018;28;20374;-74
2022/09/13 02:23:32;;;;;;;17.63;10.52;;;;;;;;;;5009554;28;20034;-74
2022/09/13 02:26:00;;;;;;;13.48;10.90;;;18.30;99.90;;;;;;5005528;28;20048;-74
2022/09/13 02:28:36;;;;;;;15.20;10.85;;;;;;;;;;5010526;28;20124;-73
2022/09/13 02:31:03;;;;;;;17.85;12.00;;;;;;;;;;5013889;28;20500;-74
2022/09/13 02:33:35;;;;;;;16.80;11.27;;;;;;;;;;5030078;28;20041;-74
2022/09/13 02:36:03;;;;;;;20.63;11.75;;;;;;;;;;5009702;28;20133;-74
2022/09/13 02:38:44;;;;;;;13.18;10.82;;;;;;;;;;5015781;28;20103;-74
2022/09/13 02:41:10;;;;;;;14.18;11.23;;;;;;;;;;5003267;28;20057;-73
2022/09/13 02:43:44;;;;;;;16.88;10.73;;;;;;;;;;5016865;28;20061;-73
2022/09/13 02:46:28;;;;;;;17.75;12.00;;;18.10;99.90;;;;;;5011961;28;20029;-73
2022/09/13 02:48:58;;;;;;;13.75;11.30;;;;;;;;;;5013238;28;20068;-74
2022/09/13 02:51:44;;;;;;;19.23;10.65;;;;;;;;;;5009627;28;20066;-73
2022/09/13 02:54:22;;;;;;;14.98;10.25;;;;;;;;;;5016262;28;20068;-74
2022/09/13 02:57:18;;;;;;;20.25;11.27;;;;;;;;;;5008322;28;20057;-73
2022/09/13 02:59:45;;;;;;;14.98;9.20;;;;;;;;;;5008676;28;20113;-73
2022/09/13 03:02:15;;;;;;;14.93;10.15;;;;;;;;;;5004749;28;20390;-74
2022/09/13 03:04:41;;;;;;;14.02;9.27;;;;;;;;;;5009733;28;20500;-74
2022/09/13 03:07:11;;;;;;;12.45;9.32;;;;;;;;;;5003752;28;20528;-73
2022/09/13 03:09:49;;;;;;;12.90;9.05;;;;;;;;;;5014674;28;20366;-73
2022/09/13 03:12:51;;;;;;;11.52;8.73;;;18.30;99.90;;;;;;5014042;28;20112;-74
2022/09/13 03:15:44;;;;;;;12.65;7.00;;;18.40;99.90;;;;;;5002570;28;20037;-73
2022/09/13 03:18:29;;;;;;;10.93;6.95;;;;;;;;;;5010758;28;20560;-74
2022/09/13 03:21:01;;;;;;;6.93;4.85;;;;;;;;;;5003650;28;20038;-74
2022/09/13 03:23:30;;;;;;;8.85;4.68;;;;;;;;;;5021134;28;20076;-73
2022/09/13 03:26:02;;;;;;;6.63;3.78;;;;;;;;;;5016105;28;20151;-74
2022/09/13 03:28:34;;;;;;;7.07;3.33;;;;;;;;;;5009849;28;20037;-74
2022/09/13 03:31:05;;;;;;;8.35;3.67;;;;;;;;;;5012134;28;20040;-73
2022/09/13 03:33:35;;;;;;;3.70;2.53;;;;;;;;;;5019314;28;20030;-73
2022/09/13 03:36:13;;;;;;;10.95;2.70;;;;;;;;;;5012252;28;20030;-73
2022/09/13 03:38:39;;;;;;;2.20;1.95;;;;;;;;;;5012531;28;20145;-73
2022/09/13 03:41:10;;;;;;;6.80;2.15;;;;;;;;;;5030360;28;20025;-73
2022/09/13 03:43:58;;;;;;;5.97;2.17;;;18.20;99.90;;;;;;5027159;28;20535;-73
2022/09/13 03:46:27;;;;;;;2.45;1.40;;;;;;;;;;5009509;28;20030;-73
2022/09/13 03:48:53;;;;;;;7.97;2.03;;;;;;;;;;5028690;28;20051;-73
2022/09/13 03:51:19;;;;;;;5.68;1.88;;;;;;;;;;5026826;28;20063;-73
2022/09/13 03:53:47;;;;;;;3.22;1.45;;;;;;;;;;5028418;28;20025;-73
2022/09/13 03:56:14;;;;;;;6.50;1.77;;;;;;;;;;5007495;28;20040;-73
2022/09/13 03:58:40;;;;;;;5.72;1.80;;;18.00;99.90;;;;;;5025005;28;20120;-73
2022/09/13 04:01:06;;;;;;;2.78;1.52;;;;;;;;;;5027921;28;20144;-74
2022/09/13 04:03:32;;;;;;;2.47;1.55;;;;;;;;;;5027499;28;20416;-73
2022/09/13 04:05:58;;;;;;;4.03;1.10;;;;;;;;;;5023496;28;20037;-74
2022/09/13 04:08:24;;;;;;;3.70;1.30;;;;;;;;;;5028718;28;20033;-73
2022/09/13 04:10:51;;;;;;;2.10;1.05;;;18.10;99.90;;;;;;5025982;28;20095;-73
2022/09/13 04:13:17;;;;;;;2.50;1.30;;;;;;;;;;5031174;28;20689;-73
2022/09/13 04:15:43;;;;;;;4.72;1.67;;;;;;;;;;5027531;28;20441;-73
2022/09/13 04:18:10;;;;;;;1.50;1.38;;;;;;;;;;5025906;28;20069;-73
2022/09/13 04:20:36;;;;;;;5.97;1.50;;;;;;;;;;5025568;28;20490;-73
2022/09/13 04:23:02;;;;;;;3.75;1.27;;;;;;;;;;5026268;28;20042;-74
2022/09/13 04:25:28;;;;;;;7.25;2.13;;;;;;;;;;5028655;28;20885;-73
2022/09/13 04:27:54;;;;;;;3.60;1.45;;;;;;;;;;5027626;28;20038;-74
2022/09/13 04:30:21;;;;;;;1.90;1.58;;;;;;;;;;5025607;28;20547;-73
2022/09/13 04:32:47;;;;;;;3.38;1.27;;;;;;;;;;5028345;28;20065;-73
2022/09/13 04:35:13;;;;;;;6.75;1.30;;;;;;;;;;5025215;28;20485;-73
2022/09/13 04:37:40;;;;;;;2.17;1.23;;;;;;;;;;5024922;28;20033;-74
2022/09/13 04:40:06;;;;;;;3.72;1.20;;;18.00;99.90;;;;;;5025135;28;20152;-74
2022/09/13 04:42:33;;;;;;;4.53;1.38;;;;;;;;;;5025992;28;20043;-74
2022/09/13 04:44:59;;;;;;;2.97;0.98;;;;;;;;;;5011093;28;20504;-74
2022/09/13 04:47:25;;;;;;;4.32;1.08;;;;;;;;;;5024999;28;20037;-73
2022/09/13 04:49:51;;;;;;;4.07;0.80;;;;;;;;;;5023699;28;20082;-74
2022/09/13 04:52:17;;;;;;;3.67;0.88;;;;;;;;;;5026707;28;20037;-73
2022/09/13 04:54:43;;;;;;;3.97;1.45;;;;;;;;;;5019679;28;20467;-73
2022/09/13 04:57:09;;;;;;;3.72;1.05;;;;;;;;;;5026270;28;20053;-74
2022/09/13 04:59:35;;;;;;;4.35;0.80;;;;;;;;;;5007946;28;20045;-74
2022/09/13 05:02:00;;;;;;;8.20;1.27;;;17.90;99.90;;;;;;5020968;28;20034;-74
2022/09/13 05:04:26;;;;;;;8.07;1.33;;;;;;;;;;5022391;28;20611;-76
2022/09/13 05:06:52;;;;;;;4.10;0.93;;;;;;;;;;5020279;28;20025;-74
2022/09/13 05:09:18;;;;;;;11.65;1.20;;;;;;;;;;5024914;28;20041;-74
2022/09/13 05:11:44;;;;;;;6.00;1.00;;;;;;;;;;5021551;28;20045;-74
2022/09/13 05:14:10;;;;;;;6.22;2.00;;;;;;;;;;5021502;28;20037;-76
2022/09/13 05:16:36;;;;;;;10.60;3.75;;;;;;;;;;5023003;28;20036;-76
2022/09/13 05:19:03;;;;;;;12.90;3.40;;;;;;;;;;5026087;28;20042;-76
2022/09/13 05:21:29;;;;;;;7.35;2.80;;;;;;;;;;5005397;28;20445;-75
2022/09/13 05:23:56;;;;;;;5.65;1.70;;;;;;;;;;5024887;28;20032;-75
2022/09/13 05:26:23;;;;;;;3.60;2.20;;;;;;;;;;5009575;28;20037;-74
2022/09/13 05:28:49;;;;;;;4.07;1.92;;;;;;;;;;5020509;28;20037;-74
2022/09/13 05:31:18;;;;;;;3.97;1.80;;;;;;;;;;5009014;28;20037;-75
2022/09/13 05:33:45;;;;;;;7.65;2.00;;;;;;;;;;5018232;28;20033;-74
2022/09/13 05:36:11;;;;;;;5.03;2.10;;;17.70;99.90;;;;;;5025029;28;20113;-74
2022/09/13 05:38:36;;;;;;;5.45;1.67;;;17.80;99.90;;;;;;5025992;28;20088;-74
2022/09/13 05:41:03;;;;;;;5.75;1.55;;;;;;;;;;5014523;28;20061;-75
2022/09/13 05:43:30;;;;;;;4.63;1.50;;;;;;;;;;5015480;28;20049;-75
2022/09/13 05:46:00;;;;;;;6.97;1.60;;;;;;;;;;5008944;28;20386;-75
2022/09/13 05:48:26;;;;;;;11.45;2.42;;;;;;;;;;5008347;28;20025;-75
2022/09/13 05:50:52;;;;;;;4.43;2.08;;;;;;;;;;5017462;28;20075;-75
2022/09/13 05:53:18;;;;;;;2.38;1.30;;;;;;;;;;5017880;28;20048;-74
2022/09/13 05:55:44;;;;;;;7.68;1.48;;;;;;;;;;5014162;28;20025;-75
2022/09/13 05:58:10;;;;;;;5.47;1.70;;;;;;;;;;5014822;28;20083;-75
2022/09/13 06:00:36;;;;;;;6.00;1.52;;;;;;;;;;5006715;28;20401;-74
2022/09/13 06:03:03;;;;;;;5.18;1.42;;;;;;;;;;5010671;28;20449;-75
2022/09/13 06:05:29;;;;;;;5.00;1.80;;;;;;;;;;5015104;28;20032;-74
2022/09/13 06:07:55;;;;;;;6.78;1.33;;;;;;;;;;5015630;28;20428;-75
2022/09/13 06:10:21;;;;;;;8.00;1.42;;;;;;;;;;5021291;28;20057;-74
2022/09/13 06:12:47;;;;;;;6.65;1.65;;;;;;;;;;5013807;28;20040;-75
2022/09/13 06:15:13;;;;;;;5.57;1.60;;;;;;;;;;5013163;28;20033;-74
2022/09/13 06:17:39;;;;;;;8.52;1.65;;;;;;;;;;5007679;28;20037;-74
2022/09/13 06:20:05;;;;;;;5.40;1.25;;;;;;;;;;5013968;28;20099;-74
2022/09/13 06:22:34;;;;;;;7.60;2.08;;;;;;;;;;4991124;28;20176;-74
2022/09/13 06:25:01;;;;;;;6.30;1.70;;;17.80;99.90;;;;;;5010263;28;20032;-74
2022/09/13 06:27:29;;;;;;;7.05;1.42;;;;;;;;;;5008382;28;20085;-74
2022/09/13 06:29:55;;;;;;;9.27;2.08;;;;;;;;;;5010325;28;20116;-74
2022/09/13 06:32:21;;;;;;;5.38;1.50;;;;;;;;;;5013261;28;20033;-74
2022/09/13 06:34:47;;;;;;;5.85;1.63;;;;;;;;;;5004367;28;20034;-75
2022/09/13 06:37:13;;;;;;;9.45;1.75;;;;;;;;;;5004371;28;20405;-75
2022/09/13 06:39:40;;;;;;;9.20;1.60;;;;;;;;;;4995133;28;20061;-75
2022/09/13 06:42:06;;;;;;;6.55;2.47;;;;;;;;;;5001473;28;20038;-76
2022/09/13 06:44:32;;;;;;;5.22;1.58;;;;;;;;;;5000391;28;20037;-76
2022/09/13 06:46:57;;;;;;;4.63;1.63;;;18.10;99.90;;;;;;5008982;28;20400;-74
2022/09/13 06:49:23;;;;;;;4.15;1.83;;;;;;;;;;5011710;28;20034;-74
2022/09/13 06:51:49;;;;;;;10.68;2.25;;;;;;;;;;5011737;28;20042;-74
2022/09/13 06:54:15;;;;;;;7.80;5.07;;;;;;;;;;5011735;28;20025;-74
2022/09/13 06:56:41;;;;;;;8.40;2.72;;;;;;;;;;5016345;28;20073;-73
2022/09/13 06:59:09;;;;;;;12.60;2.22;;;;;;;;;;5005747;28;20057;-74
2022/09/13 07:01:36;;;;;;;10.05;2.20;;;;;;;;;;5007063;28;20121;-74
2022/09/13 07:04:08;;;;;;;6.43;1.67;;;18.50;99.90;;;;;;5006602;28;20034;-74
2022/09/13 07:06:38;;;;;;;2.95;1.50;;;;;;;;;;5013804;28;20030;-74
2022/09/13 07:09:24;;;;;;;6.78;1.67;;;;;;;;;;5012200;28;20040;-74
2022/09/13 07:11:52;;;;;;;10.30;2.05;;;;;;;;;;5009890;28;20377;-74
2022/09/13 07:14:20;;;;;;;6.15;1.67;;;;;;;;;;5015548;28;20030;-74
2022/09/13 07:16:46;;;;;;;14.27;2.17;;;;;;;;;;5017016;28;20038;-74
2022/09/13 07:19:14;;;;;;;9.55;1.40;;;;;;;;;;5009671;28;20041;-74
2022/09/13 07:21:40;;;;;;;2.92;1.10;;;;;;;;;;5009724;28;20393;-74
2022/09/13 07:24:06;;;;;;;9.50;1.65;;;18.60;99.90;;;;;;5010328;28;20029;-74
2022/09/13 07:26:33;;;;;;;7.20;1.08;;;;;;;;;;4991852;28;20097;-74
2022/09/13 07:29:00;;;;;;;7.72;0.70;;;;;;;;;;5018032;28;20072;-74
2022/09/13 07:31:36;;;;;;;4.47;0.80;;;;;;;;;;5010491;28;20088;-74
2022/09/13 07:34:11;;;;;;;5.20;1.23;;;;;;;;;;5011262;28;20036;-74
2022/09/13 07:36:37;;;;;;;6.80;0.50;;;;;;;;;;5006164;28;20442;-74
2022/09/13 07:39:04;;;;;;;7.97;1.02;;;19.00;99.90;;;;;;5008008;28;20105;-74
2022/09/13 07:41:30;;;;;;;3.90;0.90;;;;;;;;;;5006636;28;20033;-74
2022/09/13 07:43:57;;;;;;;12.80;1.42;;;18.90;99.90;;;;;;5010748;28;20482;-75
2022/09/13 07:46:26;;;;;;;6.50;1.20;;;;;;;;;;5018713;28;20049;-74
2022/09/13 07:48:53;;;;;;;4.18;0.73;;;;;;;;;;4999447;28;20061;-74
2022/09/13 07:51:21;;;;;;;4.28;0.73;;;18.80;99.90;;;;;;5010696;28;20046;-74
2022/09/13 07:53:48;;;;;;;3.58;0.98;;;;;;;;;;4984723;28;20043;-74
2022/09/13 07:56:17;;;;;;;7.22;0.70;;;19.10;99.90;;;;;;4998301;28;20033;-75
2022/09/13 07:58:44;;;;;;;5.60;0.98;;;;;;;;;;5010444;28;20092;-75
2022/09/13 08:01:12;;;;;;;5.68;0.85;;;;;;;;;;5005939;28;20465;-75
2022/09/13 08:03:38;;;;;;;7.20;0.80;;;;;;;;;;5008272;28;20036;-75
2022/09/13 08:06:05;;;;;;;4.78;0.50;;;;;;;;;;5006931;28;20548;-75
2022/09/13 08:08:31;;;;;;;4.72;0.52;;;;;;;;;;5006541;28;20046;-75
2022/09/13 08:10:58;;;;;;;3.33;0.73;;;;;;;;;;5002718;28;20025;-75
2022/09/13 08:13:24;;;;;;;5.47;0.60;;;;;;;;;;5016302;28;20117;-75
2022/09/13 08:15:50;;;;;;;4.68;0.60;;;;;;;;;;5005880;28;20385;-75
2022/09/13 08:18:19;;;;;;;5.90;0.70;;;;;;;;;;5004810;28;20042;-79
2022/09/13 08:20:45;;;;;;;12.85;6.18;;;;;;;;;;5011881;28;20390;-76
2022/09/13 08:23:12;;;;;;;5.50;2.22;;;;;;;;;;5010217;28;20034;-79
2022/09/13 08:25:38;;;;;;;2.88;0.50;;;;;;;;;;5010874;28;20038;-79
2022/09/13 08:28:08;;;;;;;5.07;0.63;;;;;;;;;;5011323;28;20070;-78
2022/09/13 08:30:36;;;;;;;4.85;0.50;;;;;;;;;;5014020;28;20026;-74
2022/09/13 08:33:03;;;;;;;7.68;0.70;;;;;;;;;;5003556;28;20180;-75
2022/09/13 08:35:29;;;;;;;3.45;0.57;;;19.30;99.90;;;;;;5006920;28;20034;-74
2022/09/13 08:37:55;;;;;;;9.93;1.23;;;18.90;99.90;;;;;;5004559;28;20413;-76
2022/09/13 08:40:22;;;;;;;7.72;1.50;;;;;;;;;;4989675;28;20062;-76
2022/09/13 08:43:15;;;;;;;6.60;1.02;;;19.60;99.90;;;;;;5003663;28;20038;-74
2022/09/13 08:45:41;;;;;;;3.45;0.63;;;;;;;;;;5024057;28;20118;-73
2022/09/13 08:48:30;;;;;;;7.35;0.70;;;;;;;;;;5017781;28;20133;-75
2022/09/13 08:50:58;;;;;;;6.85;0.50;;;;;;;;;;5023125;28;20037;-75
2022/09/13 08:53:31;;;;;;;10.35;1.05;;;;;;;;;;5023729;28;20058;-73
2022/09/13 08:56:05;;;;;;;12.13;5.00;;;;;;;;;;5018240;28;20229;-72
2022/09/13 08:59:11;;;;;;;23.63;12.73;;;19.00;99.90;;;;;;5024185;28;20033;-74
2022/09/13 09:01:43;;;;;;;3.78;0.93;;;;;;;;;;5019481;28;20025;-73
2022/09/13 09:04:09;;;;;;;3.65;0.43;;;;;;;;;;5026335;28;20091;-73
2022/09/13 09:06:36;;;;;;;7.18;1.15;;;;;;;;;;5014948;28;20381;-75
2022/09/13 09:09:02;;;;;;;4.80;0.50;;;;;;;;;;5019113;28;20049;-73
2022/09/13 09:11:46;;;;;;;7.32;0.70;;;19.90;99.90;;;;;;5015290;28;20422;-72
2022/09/13 09:14:31;;;;;;;6.82;1.45;;;;;;;;;;5024056;28;20029;-73
2022/09/13 09:17:03;;;;;;;4.80;0.60;;;;;;;;;;5008496;28;20037;-73
2022/09/13 09:20:02;;;;;;;6.97;0.68;;;;;;;;;;5019757;28;20432;-73
2022/09/13 09:22:33;;;;;;;4.97;1.10;;;24.70;99.90;;;;;;4997486;28;20052;-72
2022/09/13 09:24:59;;;;;;;4.85;0.70;;;25.20;99.90;;;;;;5018077;28;20032;-72
2022/09/13 09:27:26;;;;;;;4.55;0.90;;;;;;;;;;5008395;28;20207;-72
2022/09/13 09:29:56;;;;;;;5.18;1.15;;;26.50;99.90;;;;;;5010111;28;20037;-72
2022/09/13 09:32:26;;;;;;;5.50;0.63;;;;;;;;;;5004326;28;20033;-72
2022/09/13 09:34:52;;;;;;;3.33;1.02;;;;;;;;;;5023277;28;20117;-73
2022/09/13 09:37:25;;;;;;;3.67;0.80;;;27.30;99.20;;;;;;5023840;28;20082;-73
2022/09/13 09:39:53;;;;;;;5.03;0.63;;;27.40;99.10;;;;;;5007725;28;20145;-73
2022/09/13 09:42:20;;;;;;;4.45;1.00;;;;;;;;;;5003190;28;20378;-73
2022/09/13 09:44:48;;;;;;;2.72;0.55;;;;;;;;;;5017461;28;20025;-73
2022/09/13 09:47:24;;;;;;;4.53;1.23;;;27.50;96.00;;;;;;5003948;28;20026;-73
2022/09/13 09:50:16;;;;;;;3.45;0.68;;;26.50;96.00;;;;;;5007430;28;20539;-73
2022/09/13 09:53:25;;;;;;;3.95;0.63;;;25.50;99.60;;;;;;5002175;28;20038;-73
2022/09/13 09:56:14;;;;;;;23.02;13.05;;;26.30;99.00;;;;;;4992794;28;20397;-72
2022/09/13 09:58:45;;;;;;;4.15;1.77;;;;;;;;;;4990808;28;20760;-71
2022/09/13 10:01:23;;;;;;;5.15;0.95;;;;;;;;;;5005026;28;20033;-72
2022/09/13 10:03:50;;;;;;;5.30;0.90;;;;;;;;;;5001136;28;20026;-74
2022/09/13 10:06:21;;;;;;;4.40;0.90;;;;;;;;;;5006212;28;20030;-74
2022/09/13 10:08:55;;;;;;;6.65;1.00;;;27.90;96.20;;;;;;5000447;28;20042;-75
2022/09/13 10:11:21;;;;;;;5.13;0.52;;;28.00;99.90;;;;;;5004176;28;20034;-74
2022/09/13 10:14:01;;;;;;;3.90;0.88;;;;;;;;;;4998383;28;20080;-74
2022/09/13 10:16:28;;;;;;;8.27;1.73;;;28.30;95.60;;;;;;5005744;28;20026;-73
2022/09/13 10:19:08;;;;;;;6.60;1.38;;;;;;;;;;4994445;28;20139;-74
2022/09/13 10:21:34;;;;;;;4.00;1.10;;;26.20;99.90;;;;;;5005117;28;20062;-73
2022/09/13 10:24:16;;;;;;;4.68;0.73;;;;;;;;;;5004757;28;20037;-73
2022/09/13 10:26:42;;;;;;;3.10;0.60;;;;;;;;;;4998031;28;20042;-73
2022/09/13 10:29:15;;;;;;;4.72;1.05;;;25.20;98.20;;;;;;5000420;28;20041;-73
2022/09/13 10:31:46;;;;;;;6.30;0.88;;;;;;;;;;4999840;28;20593;-74
2022/09/13 10:34:20;;;;;;;4.18;0.80;;;26.20;95.30;;;;;;5003425;28;20084;-73
2022/09/13 10:36:58;;;;;;;3.15;0.68;;;;;;;;;;5003964;28;20034;-73
2022/09/13 10:39:25;;;;;;;11.15;1.42;;;;;;;;;;4993010;28;20065;-74
2022/09/13 10:41:56;;;;;;;1.95;0.50;;;27.50;93.70;;;;;;5018841;28;20033;-73
2022/09/13 10:44:27;;;;;;;2.77;0.90;;;;;;;;;;5020169;28;20133;-72
2022/09/13 10:46:53;;;;;;;6.20;1.55;;;27.80;99.70;;;;;;5018542;28;20413;-72
2022/09/13 10:49:36;;;;;;;4.57;0.52;;;;;;;;;;5019754;28;20126;-72
2022/09/13 10:52:22;;;;;;;2.65;0.50;;;;;;;;;;5019252;28;20070;-72
2022/09/13 10:54:48;;;;;;;5.57;0.68;;;25.30;99.90;;;;;;5023055;28;20029;-72
2022/09/13 10:57:36;;;;;;;3.13;0.60;;;;;;;;;;5024514;28;20205;-73
2022/09/13 11:00:09;;;;;;;4.80;0.95;;;26.50;94.70;;;;;;5017621;28;20029;-73
2022/09/13 11:02:47;;;;;;;2.80;0.47;;;;;;;;;;5023864;28;20157;-73
2022/09/13 11:05:19;;;;;;;5.78;0.95;;;;;;;;;;5017980;28;20488;-73
2022/09/13 11:08:13;;;;;;;3.15;0.50;;;26.00;93.30;;;;;;5020830;28;20037;-74
2022/09/13 11:10:54;;;;;;;6.47;0.88;;;25.20;93.40;;;;;;5018820;28;20490;-73
2022/09/13 11:13:45;;;;;;;3.85;0.60;;;24.70;94.60;;;;;;5023480;28;20041;-73
2022/09/13 11:16:37;;;;;;;2.83;0.52;;;;;;;;;;5020694;28;20026;-73
2022/09/13 11:19:07;;;;;;;;;;;23.20;99.50;;;;;;5017705;28;20054;-73
2022/09/13 11:21:46;;;;;;;3.47;0.60;;;23.20;99.90;;;;;;5023002;28;19909;-73
2022/09/13 11:24:12;;;;;;;5.30;0.85;;;;;;;;;;5020011;28;20033;-73
2022/09/13 11:26:56;;;;;;;4.85;0.88;;;23.10;99.90;;;;;;5022210;28;20044;-73
2022/09/13 11:29:31;;;;;;;7.88;0.90;;;;;;;;;;5022149;28;20034;-73
2022/09/13 11:32:16;;;;;;;4.53;0.73;;;;;;;;;;5024711;28;20050;-73
2022/09/13 11:34:42;;;;;;;4.05;0.70;;;;;;;;;;5026988;28;20511;-73
2022/09/13 11:37:21;;;;;;;4.65;0.70;;;23.50;99.90;;;;;;5022975;28;20033;-73
2022/09/13 11:39:47;;;;;;;3.97;0.93;;;;;;;;;;5017620;28;20045;-70
2022/09/13 11:42:45;;;;;;;8.40;1.00;;;23.60;96.90;;;;;;5018062;28;20079;-74
2022/09/13 11:45:14;;;;;;;5.03;0.75;;;;;;;;;;5021267;28;20026;-73
2022/09/13 11:47:40;;;;;;;6.28;0.73;;;;;;;;;;5024642;28;20164;-74
2022/09/13 11:50:17;;;;;;;4.55;0.70;;;;;;;;;;5025231;28;20081;-73
2022/09/13 11:53:01;;;;;;;3.03;0.70;;;;;;;;;;5022799;28;20048;-74
2022/09/13 11:55:37;;;;;;;5.03;0.75;;;;;;;;;;5024283;28;20032;-74
2022/09/13 11:58:15;;;;;;;2.15;0.63;;;;;;;;;;5026164;28;20492;-73
2022/09/13 12:01:08;;;;;;;3.97;0.60;;;23.60;95.70;;;;;;5022824;28;20033;-73
2022/09/13 12:03:51;;;;;;;4.53;0.95;;;;;;;;;;5021536;28;20046;-73
2022/09/13 12:06:43;;;;;;;6.72;0.60;;;;;;;;;;5022849;28;20030;-74
2022/09/13 12:09:16;;;;;;;5.88;2.47;;;;;;;;;;5022991;28;20140;-73
2022/09/13 12:11:45;;;;;;;4.68;1.05;;;;;;;;;;5031562;28;20083;-76
2022/09/13 12:14:14;;;;;;;5.80;0.80;;;23.40;97.50;;;;;;5030034;28;20669;-75
2022/09/13 12:16:42;;;;;;;3.92;0.75;;;;;;;;;;5010692;28;20054;-74
2022/09/13 12:19:15;;;;;;;5.25;1.05;;;;;;;;;;5023068;28;20061;-74
2022/09/13 12:21:43;;;;;;;6.38;1.25;;;;;;;;;;5024787;28;20068;-73
2022/09/13 12:24:15;;;;;;;6.35;1.00;;;;;;;;;;5024150;28;20028;-74
2022/09/13 12:26:46;;;;;;;6.70;0.90;;;;;;;;;;5017759;28;20073;-74
2022/09/13 12:29:26;;;;;;;5.00;0.82;;;23.40;98.70;;;;;;5010153;28;20091;-72
2022/09/13 12:31:58;;;;;;;10.15;0.98;;;23.50;98.30;;;;;;5027307;28;20034;-72
2022/09/13 12:34:51;;;;;;;5.15;0.75;;;23.60;98.10;;;;;;5032799;28;20099;-72
2022/09/13 12:37:17;;;;;;;8.73;1.00;;;;;;;;;;5022920;28;20037;-72
2022/09/13 12:39:49;;;;;;;6.13;0.73;;;23.50;99.90;;;;;;5030840;28;20128;-72
2022/09/13 12:42:40;;;;;;;5.80;0.90;;;;;;;;;;5024066;28;20021;-72
2022/09/13 12:45:39;;;;;;;5.15;0.90;;;23.50;97.30;;;;;;5032908;28;20101;-72
2022/09/13 12:48:05;;;;;;;6.75;1.23;;;;;;;;;;5031463;28;20120;-72
2022/09/13 12:50:50;;;;;;;6.18;0.90;;;;;;;;;;5032807;28;20537;-72
2022/09/13 12:53:28;;;;;;;5.75;1.05;;;23.20;96.00;;;;;;5035829;28;20050;-72
2022/09/13 12:55:57;;;;;;;5.18;1.20;;;;;;;;;;5029951;28;20519;-72
2022/09/13 12:58:33;;;;;;;4.47;0.73;;;23.30;97.70;;;;;;5020157;28;20053;-76
2022/09/13 13:01:08;;;;;;;6.38;2.17;;;;;;;;;;5024217;28;20038;-74
2022/09/13 13:03:36;;;;;;;5.60;1.23;;;;;;;;;;5027255;28;20020;-72
2022/09/13 13:06:25;;;;;;;5.13;1.20;;;23.40;96.30;;;;;;5031478;28;20033;-72
2022/09/13 13:08:52;;;;;;;5.00;1.40;;;;;;;;;;5030544;28;20095;-72
2022/09/13 13:11:21;;;;;;;6.63;0.90;;;;;;;;;;5029218;28;20473;-71
2022/09/13 13:14:08;;;;;;;11.32;1.20;;;23.40;96.40;;;;;;5025168;28;20044;-73
2022/09/13 13:16:34;;;;;;;8.73;1.67;;;;;;;;;;5020472;28;20037;-71
2022/09/13 13:19:04;;;;;;;5.20;0.98;;;23.40;97.00;;;;;;5035514;28;20033;-71
2022/09/13 13:21:30;;;;;;;5.15;0.82;;;;;;;;;;5028166;28;20480;-71
2022/09/13 13:24:14;;;;;;;4.95;1.17;;;;;;;;;;5028324;28;20061;-75
2022/09/13 13:26:53;;;;;;;7.72;1.35;;;;;;;;;;5029261;28;20030;-71
2022/09/13 13:29:22;;;;;;;5.35;0.95;;;;;;;;;;5026946;28;20046;-72
2022/09/13 13:32:11;;;;;;;4.75;0.70;;;;;;;;;;5017337;28;20362;-72
2022/09/13 13:34:48;;;;;;;7.20;1.05;;;;;;;;;;5041941;28;20025;-72
2022/09/13 13:37:14;;;;;;;4.50;1.00;;;;;;;;;;5033280;28;20033;-72
2022/09/13 13:39:44;;;;;;;6.20;0.93;;;;;;;;;;5020538;28;20054;-72
2022/09/13 13:42:23;;;;;;;4.95;1.10;;;;;;;;;;5010697;28;20679;-72
2022/09/13 13:44:51;;;;;;;4.53;0.98;;;23.20;94.70;;;;;;5006945;28;20038;-72
2022/09/13 13:47:17;;;;;;;7.70;1.50;;;;;;;;;;5011707;28;20038;-72
2022/09/13 13:49:45;;;;;;;5.05;0.80;;;23.00;99.90;;;;;;5006425;28;20042;-71
2022/09/13 13:52:12;;;;;;;6.50;0.98;;;;;;;;;;5007599;28;20397;-72
2022/09/13 13:54:41;;;;;;;6.80;0.90;;;;;;;;;;5017563;28;20026;-72
2022/09/13 13:57:32;;;;;;;5.75;0.82;;;23.00;95.80;;;;;;5007254;28;20420;-71
2022/09/13 14:00:06;;;;;;;6.50;1.10;;;;;;;;;;5015272;28;20044;-72
2022/09/13 14:02:42;;;;;;;4.00;0.73;;;23.00;97.20;;;;;;5008348;28;20469;-72
2022/09/13 14:05:13;;;;;;;5.97;0.98;;;;;;;;;;5007088;28;20421;-71
2022/09/13 14:08:01;;;;;;;7.15;0.85;;;23.20;97.10;;;;;;5002206;28;20429;-71
2022/09/13 14:10:47;;;;;;;9.13;1.33;;;23.00;97.00;;;;;;4991425;28;20146;-73
2022/09/13 14:13:17;;;;;;;6.68;1.58;;;;;;;;;;4984841;28;20091;-72
2022/09/13 14:15:58;;;;;;;5.65;0.88;;;;;;;;;;5008916;28;20032;-72
2022/09/13 14:18:33;;;;;;;6.27;1.50;;;;;;;;;;5018464;28;20739;-72
2022/09/13 14:21:01;;;;;;;10.40;1.05;;;;;;;;;;5008274;28;20037;-72
2022/09/13 14:23:27;;;;;;;5.32;0.77;;;;;;;;;;5012813;28;20756;-72
2022/09/13 14:25:57;;;;;;;5.55;0.90;;;;;;;;;;5003425;28;20037;-71
2022/09/13 14:28:24;;;;;;;5.47;1.00;;;;;;;;;;5007906;28;20038;-72
2022/09/13 14:30:54;;;;;;;4.63;0.82;;;;;;;;;;5006843;28;20040;-71